EZS27E LSZH-LEPA
Flight info
| Callsign | EZS27E |
|---|---|
| Flight time | N/A |
| Altitude | 35000 |
| Route | VEBIT1Y VEBIT T50 ROTOS Z669 ULMES DCT VADAR DCT GEVEA DCT INCUS DCT BALSI DCT RETNO DCT TUPOX DCT MTG DCT DIVKO DCT VATIR DCT PIVUS DCT BODEQ DCT VERSO L129 LUNIK LUNIK3P |
| Aircraft | A320/M-SDE3FGHIRWY/LB1 |
Departure
| Time | 2026-05-04 21:21 |
|---|---|
| Airport | Zürich Airport (LSZH) |
Arrival
| Time | N/A |
|---|---|
| Airport | Palma de Mallorca Airport (LEPA) |
| Time | Latitude | Longitude | Altitude | Speed | Heading |
|---|---|---|---|---|---|
| 2026-05-04 21:01 | 47.45184 | 8.55751 | 1406 ft | 0 kts | 186° |
| 2026-05-04 21:07 | 47.45191 | 8.55752 | 1411 ft | 4 kts | 181° |
| 2026-05-04 21:07 | 47.45214 | 8.55744 | 1408 ft | 4 kts | 131° |
| 2026-05-04 21:08 | 47.45224 | 8.55710 | 1406 ft | 4 kts | 98° |
| 2026-05-04 21:08 | 47.45227 | 8.55673 | 1406 ft | 4 kts | 88° |
| 2026-05-04 21:08 | 47.45221 | 8.55637 | 1406 ft | 4 kts | 47° |
| 2026-05-04 21:08 | 47.45200 | 8.55618 | 1409 ft | 4 kts | 7° |
| 2026-05-04 21:09 | 47.45174 | 8.55620 | 1410 ft | 4 kts | 341° |
| 2026-05-04 21:09 | 47.45167 | 8.55624 | 1409 ft | 1 kts | 336° |
| 2026-05-04 21:12 | 47.45181 | 8.55615 | 1408 ft | 5 kts | 336° |
| 2026-05-04 21:12 | 47.45222 | 8.55589 | 1405 ft | 8 kts | 338° |
| 2026-05-04 21:12 | 47.45278 | 8.55568 | 1411 ft | 8 kts | 352° |
| 2026-05-04 21:13 | 47.45342 | 8.55538 | 1411 ft | 12 kts | 332° |
| 2026-05-04 21:13 | 47.45432 | 8.55472 | 1406 ft | 17 kts | 334° |
| 2026-05-04 21:13 | 47.45477 | 8.55440 | 1409 ft | 0 kts | 335° |
| 2026-05-04 21:15 | 47.45481 | 8.55437 | 1408 ft | 4 kts | 335° |
| 2026-05-04 21:15 | 47.45533 | 8.55401 | 1403 ft | 10 kts | 335° |
| 2026-05-04 21:16 | 47.45607 | 8.55350 | 1404 ft | 13 kts | 335° |
| 2026-05-04 21:16 | 47.45669 | 8.55360 | 1405 ft | 9 kts | 68° |
| 2026-05-04 21:16 | 47.45667 | 8.55455 | 1401 ft | 10 kts | 95° |
| 2026-05-04 21:16 | 47.45660 | 8.55561 | 1408 ft | 12 kts | 95° |
| 2026-05-04 21:17 | 47.45647 | 8.55727 | 1409 ft | 21 kts | 96° |
| 2026-05-04 21:17 | 47.45631 | 8.55966 | 1412 ft | 26 kts | 96° |
| 2026-05-04 21:17 | 47.45612 | 8.56237 | 1412 ft | 27 kts | 96° |
| 2026-05-04 21:17 | 47.45592 | 8.56519 | 1417 ft | 28 kts | 96° |
| 2026-05-04 21:18 | 47.45576 | 8.56742 | 1419 ft | 17 kts | 96° |
| 2026-05-04 21:18 | 47.45563 | 8.56918 | 1420 ft | 14 kts | 96° |
| 2026-05-04 21:18 | 47.45567 | 8.56989 | 1421 ft | 0 kts | 58° |
| 2026-05-04 21:19 | 47.45586 | 8.57015 | 1423 ft | 5 kts | 25° |
| 2026-05-04 21:20 | 47.45637 | 8.57022 | 1425 ft | 10 kts | 0° |
| 2026-05-04 21:20 | 47.45664 | 8.56981 | 1424 ft | 5 kts | 279° |
| 2026-05-04 21:20 | 47.45664 | 8.56973 | 1424 ft | 0 kts | 277° |
| 2026-05-04 21:20 | 47.45670 | 8.56909 | 1423 ft | 28 kts | 277° |
| 2026-05-04 21:21 | 47.45717 | 8.56222 | 1417 ft | 103 kts | 276° |
| 2026-05-04 21:21 | 47.45812 | 8.54872 | 1394 ft | 159 kts | 275° |
| 2026-05-04 21:21 | 47.45939 | 8.53158 | 1877 ft | 171 kts | 276° |
| 2026-05-04 21:21 | 47.46073 | 8.51427 | 2725 ft | 168 kts | 275° |
| 2026-05-04 21:22 | 47.46193 | 8.49705 | 3405 ft | 168 kts | 275° |
| 2026-05-04 21:22 | 47.46223 | 8.47989 | 4014 ft | 168 kts | 257° |
| 2026-05-04 21:22 | 47.45669 | 8.46492 | 4574 ft | 170 kts | 225° |
| 2026-05-04 21:22 | 47.44629 | 8.45450 | 4818 ft | 193 kts | 212° |
| 2026-05-04 21:23 | 47.43538 | 8.44133 | 5042 ft | 214 kts | 228° |
| 2026-05-04 21:23 | 47.42609 | 8.42280 | 5315 ft | 236 kts | 234° |
| 2026-05-04 21:23 | 47.41614 | 8.40197 | 5674 ft | 260 kts | 234° |
| 2026-05-04 21:23 | 47.40551 | 8.37959 | 6359 ft | 269 kts | 233° |
| 2026-05-04 21:24 | 47.39487 | 8.35711 | 7160 ft | 272 kts | 233° |
| 2026-05-04 21:24 | 47.38487 | 8.33276 | 8020 ft | 276 kts | 241° |
| 2026-05-04 21:24 | 47.37613 | 8.30801 | 8906 ft | 276 kts | 240° |
| 2026-05-04 21:24 | 47.36723 | 8.28291 | 9848 ft | 276 kts | 240° |
| 2026-05-04 21:25 | 47.35831 | 8.25782 | 10653 ft | 277 kts | 240° |
| 2026-05-04 21:25 | 47.34910 | 8.23198 | 11219 ft | 289 kts | 241° |
| 2026-05-04 21:25 | 47.33950 | 8.20510 | 11432 ft | 312 kts | 241° |
| 2026-05-04 21:25 | 47.31090 | 8.12485 | 13024 ft | 333 kts | 242° |
| 2026-05-04 21:26 | 47.26715 | 8.00113 | 15555 ft | 348 kts | 245° |